sensor_id;sensor_type;location;lat;lon;timestamp;pressure;altitude;pressure_sealevel;temperature;humidity
8641;BME280;4358;42.100;25.222;2022-12-16T00:00:28;100144.78;;;5.50;100.00
8641;BME280;4358;42.100;25.222;2022-12-16T00:02:57;100148.16;;;5.54;100.00
8641;BME280;4358;42.100;25.222;2022-12-16T00:05:25;100144.06;;;5.47;100.00
8641;BME280;4358;42.100;25.222;2022-12-16T00:07:52;100153.78;;;5.45;100.00
8641;BME280;4358;42.100;25.222;2022-12-16T00:10:19;100150.59;;;5.38;100.00
8641;BME280;4358;42.100;25.222;2022-12-16T00:12:46;100149.97;;;5.32;100.00
8641;BME280;4358;42.100;25.222;2022-12-16T00:15:13;100153.47;;;5.32;100.00
8641;BME280;4358;42.100;25.222;2022-12-16T00:17:40;100164.53;;;5.19;100.00
8641;BME280;4358;42.100;25.222;2022-12-16T00:20:10;100150.00;;;5.10;100.00
8641;BME280;4358;42.100;25.222;2022-12-16T00:22:37;100141.44;;;5.05;100.00
8641;BME280;4358;42.100;25.222;2022-12-16T00:25:04;100142.53;;;4.99;100.00
8641;BME280;4358;42.100;25.222;2022-12-16T00:27:31;100144.13;;;4.82;100.00
8641;BME280;4358;42.100;25.222;2022-12-16T00:29:58;100148.56;;;4.81;100.00
8641;BME280;4358;42.100;25.222;2022-12-16T00:32:25;100152.31;;;4.74;100.00
8641;BME280;4358;42.100;25.222;2022-12-16T00:34:52;100163.81;;;4.72;100.00
8641;BME280;4358;42.100;25.222;2022-12-16T00:37:20;100169.31;;;4.65;100.00
8641;BME280;4358;42.100;25.222;2022-12-16T00:39:47;100159.03;;;4.59;100.00
8641;BME280;4358;42.100;25.222;2022-12-16T00:42:14;100158.06;;;4.62;100.00
8641;BME280;4358;42.100;25.222;2022-12-16T00:44:41;100172.22;;;4.58;100.00
8641;BME280;4358;42.100;25.222;2022-12-16T00:47:08;100163.66;;;4.53;100.00
8641;BME280;4358;42.100;25.222;2022-12-16T00:49:34;100165.25;;;4.57;100.00
8641;BME280;4358;42.100;25.222;2022-12-16T00:52:02;100159.91;;;4.60;100.00
8641;BME280;4358;42.100;25.222;2022-12-16T00:54:30;100158.81;;;4.65;100.00
8641;BME280;4358;42.100;25.222;2022-12-16T00:56:57;100159.63;;;4.66;100.00
8641;BME280;4358;42.100;25.222;2022-12-16T00:59:24;100163.22;;;4.65;100.00
8641;BME280;4358;42.100;25.222;2022-12-16T01:01:51;100161.34;;;4.67;100.00
8641;BME280;4358;42.100;25.222;2022-12-16T01:04:18;100167.53;;;4.66;100.00
8641;BME280;4358;42.100;25.222;2022-12-16T01:06:45;100166.63;;;4.67;100.00
8641;BME280;4358;42.100;25.222;2022-12-16T01:09:12;100161.72;;;4.58;100.00
8641;BME280;4358;42.100;25.222;2022-12-16T01:11:40;100156.59;;;4.55;100.00
8641;BME280;4358;42.100;25.222;2022-12-16T01:14:07;100161.78;;;4.56;100.00
8641;BME280;4358;42.100;25.222;2022-12-16T01:16:34;100163.00;;;4.48;100.00
8641;BME280;4358;42.100;25.222;2022-12-16T01:19:01;100157.06;;;4.43;100.00
8641;BME280;4358;42.100;25.222;2022-12-16T01:21:28;100145.69;;;4.42;100.00
8641;BME280;4358;42.100;25.222;2022-12-16T01:23:55;100111.66;;;4.16;100.00
8641;BME280;4358;42.100;25.222;2022-12-16T01:26:22;100141.50;;;4.37;100.00
8641;BME280;4358;42.100;25.222;2022-12-16T01:28:50;100146.75;;;4.37;100.00
8641;BME280;4358;42.100;25.222;2022-12-16T01:31:18;100137.34;;;4.31;100.00
8641;BME280;4358;42.100;25.222;2022-12-16T01:33:46;100136.38;;;4.34;100.00
8641;BME280;4358;42.100;25.222;2022-12-16T01:36:13;100125.75;;;4.37;100.00
8641;BME280;4358;42.100;25.222;2022-12-16T01:38:41;100126.56;;;4.39;100.00
8641;BME280;4358;42.100;25.222;2022-12-16T01:41:08;100139.78;;;4.36;100.00
8641;BME280;4358;42.100;25.222;2022-12-16T01:43:37;100145.97;;;4.35;100.00
8641;BME280;4358;42.100;25.222;2022-12-16T01:46:08;100158.50;;;4.28;100.00
8641;BME280;4358;42.100;25.222;2022-12-16T01:48:44;100166.69;;;4.19;100.00
8641;BME280;4358;42.100;25.222;2022-12-16T01:51:15;100173.84;;;4.15;100.00
8641;BME280;4358;42.100;25.222;2022-12-16T01:53:45;100165.91;;;4.17;100.00
8641;BME280;4358;42.100;25.222;2022-12-16T01:56:14;100177.16;;;4.20;100.00
8641;BME280;4358;42.100;25.222;2022-12-16T01:58:44;100157.84;;;4.21;100.00
8641;BME280;4358;42.100;25.222;2022-12-16T02:01:15;100149.97;;;4.21;100.00
8641;BME280;4358;42.100;25.222;2022-12-16T02:03:42;100148.84;;;4.29;100.00
8641;BME280;4358;42.100;25.222;2022-12-16T02:06:08;100145.28;;;4.30;100.00
8641;BME280;4358;42.100;25.222;2022-12-16T02:08:35;100150.44;;;4.33;100.00
8641;BME280;4358;42.100;25.222;2022-12-16T02:11:14;100136.25;;;4.37;100.00
8641;BME280;4358;42.100;25.222;2022-12-16T02:13:57;100134.22;;;4.45;100.00
8641;BME280;4358;42.100;25.222;2022-12-16T02:16:35;100132.50;;;4.44;100.00
8641;BME280;4358;42.100;25.222;2022-12-16T02:19:21;100130.53;;;4.49;100.00
8641;BME280;4358;42.100;25.222;2022-12-16T02:21:56;100129.25;;;4.59;100.00
8641;BME280;4358;42.100;25.222;2022-12-16T02:28:00;100117.34;;;4.72;100.00
8641;BME280;4358;42.100;25.222;2022-12-16T02:33:42;100112.31;;;4.88;100.00
8641;BME280;4358;42.100;25.222;2022-12-16T02:36:20;100099.25;;;4.86;100.00
8641;BME280;4358;42.100;25.222;2022-12-16T02:38:55;100102.66;;;4.88;100.00
8641;BME280;4358;42.100;25.222;2022-12-16T02:41:28;100089.50;;;4.88;100.00
8641;BME280;4358;42.100;25.222;2022-12-16T02:44:02;100093.38;;;5.01;100.00
8641;BME280;4358;42.100;25.222;2022-12-16T02:46:32;100101.19;;;5.03;100.00
8641;BME280;4358;42.100;25.222;2022-12-16T02:49:05;100098.38;;;5.07;100.00
8641;BME280;4358;42.100;25.222;2022-12-16T02:51:33;100102.25;;;5.19;100.00
8641;BME280;4358;42.100;25.222;2022-12-16T02:54:03;100100.69;;;5.15;100.00
8641;BME280;4358;42.100;25.222;2022-12-16T02:56:44;100102.34;;;5.18;100.00
8641;BME280;4358;42.100;25.222;2022-12-16T02:59:19;100107.22;;;5.27;100.00
8641;BME280;4358;42.100;25.222;2022-12-16T03:01:53;100096.28;;;5.16;100.00
8641;BME280;4358;42.100;25.222;2022-12-16T03:04:27;100109.13;;;5.23;100.00
8641;BME280;4358;42.100;25.222;2022-12-16T03:06:59;100119.44;;;5.28;100.00
8641;BME280;4358;42.100;25.222;2022-12-16T03:09:29;100124.38;;;5.35;100.00
8641;BME280;4358;42.100;25.222;2022-12-16T03:11:59;100127.75;;;5.39;100.00
8641;BME280;4358;42.100;25.222;2022-12-16T03:14:31;100117.13;;;5.40;100.00
8641;BME280;4358;42.100;25.222;2022-12-16T03:17:02;100126.94;;;5.37;100.00
8641;BME280;4358;42.100;25.222;2022-12-16T03:19:30;100108.66;;;5.34;100.00
8641;BME280;4358;42.100;25.222;2022-12-16T03:21:59;100104.31;;;5.33;100.00
8641;BME280;4358;42.100;25.222;2022-12-16T03:24:29;100113.00;;;5.35;100.00
8641;BME280;4358;42.100;25.222;2022-12-16T03:27:02;100101.69;;;5.33;100.00
8641;BME280;4358;42.100;25.222;2022-12-16T03:29:35;100110.16;;;5.39;100.00
8641;BME280;4358;42.100;25.222;2022-12-16T03:32:09;100111.16;;;5.37;100.00
8641;BME280;4358;42.100;25.222;2022-12-16T03:34:41;100108.34;;;5.41;100.00
8641;BME280;4358;42.100;25.222;2022-12-16T03:37:11;100101.94;;;5.47;100.00
8641;BME280;4358;42.100;25.222;2022-12-16T03:39:41;100113.06;;;5.53;100.00
8641;BME280;4358;42.100;25.222;2022-12-16T03:42:10;100109.25;;;5.61;100.00
8641;BME280;4358;42.100;25.222;2022-12-16T03:44:38;100112.63;;;5.64;100.00
8641;BME280;4358;42.100;25.222;2022-12-16T03:47:06;100116.81;;;5.68;100.00
8641;BME280;4358;42.100;25.222;2022-12-16T03:49:33;100123.00;;;5.67;100.00
8641;BME280;4358;42.100;25.222;2022-12-16T03:52:00;100119.31;;;5.71;100.00
8641;BME280;4358;42.100;25.222;2022-12-16T03:54:27;100118.53;;;5.69;100.00
8641;BME280;4358;42.100;25.222;2022-12-16T03:56:54;100126.44;;;5.69;100.00
8641;BME280;4358;42.100;25.222;2022-12-16T03:59:21;100118.41;;;5.72;100.00
8641;BME280;4358;42.100;25.222;2022-12-16T04:01:48;100117.97;;;5.81;100.00
8641;BME280;4358;42.100;25.222;2022-12-16T04:04:16;100123.13;;;5.84;100.00
8641;BME280;4358;42.100;25.222;2022-12-16T04:06:43;100136.31;;;5.84;100.00
8641;BME280;4358;42.100;25.222;2022-12-16T04:09:30;100133.78;;;5.81;100.00
8641;BME280;4358;42.100;25.222;2022-12-16T04:11:57;100137.75;;;5.71;100.00
8641;BME280;4358;42.100;25.222;2022-12-16T04:14:41;100154.16;;;5.58;100.00
8641;BME280;4358;42.100;25.222;2022-12-16T04:17:25;100148.69;;;5.62;100.00
8641;BME280;4358;42.100;25.222;2022-12-16T04:20:14;100152.16;;;5.63;100.00
8641;BME280;4358;42.100;25.222;2022-12-16T04:22:59;100154.59;;;5.67;100.00
8641;BME280;4358;42.100;25.222;2022-12-16T04:25:43;100158.69;;;5.74;100.00
8641;BME280;4358;42.100;25.222;2022-12-16T04:28:09;100156.84;;;5.76;100.00
8641;BME280;4358;42.100;25.222;2022-12-16T04:30:36;100153.28;;;5.77;100.00
8641;BME280;4358;42.100;25.222;2022-12-16T04:33:06;100154.75;;;5.64;100.00
8641;BME280;4358;42.100;25.222;2022-12-16T04:35:53;100151.25;;;5.64;100.00
8641;BME280;4358;42.100;25.222;2022-12-16T04:38:38;100134.59;;;5.63;100.00
8641;BME280;4358;42.100;25.222;2022-12-16T04:41:22;100148.41;;;5.68;100.00
8641;BME280;4358;42.100;25.222;2022-12-16T04:44:06;100144.72;;;5.72;100.00
8641;BME280;4358;42.100;25.222;2022-12-16T04:46:50;100158.94;;;5.68;100.00
8641;BME280;4358;42.100;25.222;2022-12-16T04:49:34;100158.81;;;5.71;100.00
8641;BME280;4358;42.100;25.222;2022-12-16T04:52:20;100161.25;;;5.76;100.00
8641;BME280;4358;42.100;25.222;2022-12-16T04:55:06;100163.16;;;5.72;100.00
8641;BME280;4358;42.100;25.222;2022-12-16T04:57:51;100169.34;;;5.71;100.00
8641;BME280;4358;42.100;25.222;2022-12-16T05:00:36;100181.66;;;5.71;100.00
8641;BME280;4358;42.100;25.222;2022-12-16T05:03:20;100181.75;;;5.69;100.00
8641;BME280;4358;42.100;25.222;2022-12-16T05:06:05;100191.88;;;5.78;100.00
8641;BME280;4358;42.100;25.222;2022-12-16T05:08:50;100184.13;;;5.75;100.00
8641;BME280;4358;42.100;25.222;2022-12-16T05:11:35;100170.53;;;5.84;100.00
8641;BME280;4358;42.100;25.222;2022-12-16T05:14:19;100158.06;;;5.89;100.00
8641;BME280;4358;42.100;25.222;2022-12-16T05:17:04;100169.38;;;5.91;100.00
8641;BME280;4358;42.100;25.222;2022-12-16T05:19:48;100169.75;;;6.03;100.00
8641;BME280;4358;42.100;25.222;2022-12-16T05:22:32;100158.84;;;6.12;100.00
8641;BME280;4358;42.100;25.222;2022-12-16T05:25:18;100158.63;;;6.16;100.00
8641;BME280;4358;42.100;25.222;2022-12-16T05:28:02;100167.22;;;6.20;100.00
8641;BME280;4358;42.100;25.222;2022-12-16T05:31:01;100163.25;;;6.30;100.00
8641;BME280;4358;42.100;25.222;2022-12-16T05:33:45;100155.06;;;6.36;100.00
8641;BME280;4358;42.100;25.222;2022-12-16T05:36:29;100148.72;;;6.40;100.00
8641;BME280;4358;42.100;25.222;2022-12-16T05:39:13;100173.53;;;6.36;100.00
8641;BME280;4358;42.100;25.222;2022-12-16T05:41:59;100108.50;;;5.97;100.00
8641;BME280;4358;42.100;25.222;2022-12-16T05:44:43;100173.03;;;6.28;100.00
8641;BME280;4358;42.100;25.222;2022-12-16T05:47:27;100168.53;;;6.30;100.00
8641;BME280;4358;42.100;25.222;2022-12-16T05:50:12;100155.28;;;6.31;100.00
8641;BME280;4358;42.100;25.222;2022-12-16T05:52:56;100145.72;;;6.29;100.00
8641;BME280;4358;42.100;25.222;2022-12-16T05:55:41;100150.28;;;6.44;100.00
8641;BME280;4358;42.100;25.222;2022-12-16T05:58:28;100158.66;;;6.54;100.00
8641;BME280;4358;42.100;25.222;2022-12-16T06:01:13;100174.09;;;6.61;100.00
8641;BME280;4358;42.100;25.222;2022-12-16T06:03:57;100165.56;;;6.56;100.00
8641;BME280;4358;42.100;25.222;2022-12-16T06:06:42;100189.88;;;6.63;100.00
8641;BME280;4358;42.100;25.222;2022-12-16T06:09:34;100193.50;;;6.60;100.00
8641;BME280;4358;42.100;25.222;2022-12-16T06:12:18;100206.03;;;6.55;100.00
8641;BME280;4358;42.100;25.222;2022-12-16T06:15:05;100197.03;;;6.41;100.00
8641;BME280;4358;42.100;25.222;2022-12-16T06:17:50;100190.47;;;6.49;100.00
8641;BME280;4358;42.100;25.222;2022-12-16T06:20:34;100197.47;;;6.50;100.00
8641;BME280;4358;42.100;25.222;2022-12-16T06:23:19;100212.91;;;6.59;100.00
8641;BME280;4358;42.100;25.222;2022-12-16T06:26:04;100208.19;;;6.66;100.00
8641;BME280;4358;42.100;25.222;2022-12-16T06:28:48;100209.34;;;6.79;100.00
8641;BME280;4358;42.100;25.222;2022-12-16T06:31:34;100200.19;;;6.86;100.00
8641;BME280;4358;42.100;25.222;2022-12-16T06:34:21;100198.75;;;6.98;100.00
8641;BME280;4358;42.100;25.222;2022-12-16T06:37:05;100210.03;;;7.01;100.00
8641;BME280;4358;42.100;25.222;2022-12-16T06:39:49;100210.59;;;7.08;100.00
8641;BME280;4358;42.100;25.222;2022-12-16T06:42:33;100211.22;;;7.13;100.00
8641;BME280;4358;42.100;25.222;2022-12-16T06:45:18;100217.28;;;7.15;100.00
8641;BME280;4358;42.100;25.222;2022-12-16T06:48:04;100220.28;;;7.26;100.00
8641;BME280;4358;42.100;25.222;2022-12-16T06:50:48;100236.88;;;7.28;100.00
8641;BME280;4358;42.100;25.222;2022-12-16T06:53:32;100246.97;;;7.20;100.00
8641;BME280;4358;42.100;25.222;2022-12-16T06:56:16;100257.53;;;7.20;100.00
8641;BME280;4358;42.100;25.222;2022-12-16T06:59:01;100251.84;;;7.10;100.00
8641;BME280;4358;42.100;25.222;2022-12-16T07:01:45;100257.69;;;7.17;100.00
8641;BME280;4358;42.100;25.222;2022-12-16T07:04:31;100242.31;;;7.25;100.00
8641;BME280;4358;42.100;25.222;2022-12-16T07:07:15;100251.31;;;7.21;100.00
8641;BME280;4358;42.100;25.222;2022-12-16T07:10:00;100261.50;;;7.29;100.00
8641;BME280;4358;42.100;25.222;2022-12-16T07:12:44;100251.38;;;7.19;100.00
8641;BME280;4358;42.100;25.222;2022-12-16T07:15:28;100252.09;;;7.23;100.00
8641;BME280;4358;42.100;25.222;2022-12-16T07:18:12;100256.00;;;7.33;100.00
8641;BME280;4358;42.100;25.222;2022-12-16T07:20:58;100257.41;;;7.40;100.00
8641;BME280;4358;42.100;25.222;2022-12-16T07:23:42;100251.97;;;7.26;100.00
8641;BME280;4358;42.100;25.222;2022-12-16T07:26:27;100245.13;;;7.22;100.00
8641;BME280;4358;42.100;25.222;2022-12-16T07:29:11;100237.69;;;7.30;100.00
8641;BME280;4358;42.100;25.222;2022-12-16T07:31:55;100240.34;;;7.47;100.00
8641;BME280;4358;42.100;25.222;2022-12-16T07:34:39;100270.91;;;7.53;100.00
8641;BME280;4358;42.100;25.222;2022-12-16T07:37:25;100262.88;;;7.54;100.00
8641;BME280;4358;42.100;25.222;2022-12-16T07:40:10;100275.94;;;7.57;100.00
8641;BME280;4358;42.100;25.222;2022-12-16T07:42:54;100283.88;;;7.57;100.00
8641;BME280;4358;42.100;25.222;2022-12-16T07:45:38;100284.00;;;7.54;100.00
8641;BME280;4358;42.100;25.222;2022-12-16T07:48:23;100292.16;;;7.50;100.00
8641;BME280;4358;42.100;25.222;2022-12-16T07:51:07;100286.19;;;7.46;100.00
8641;BME280;4358;42.100;25.222;2022-12-16T07:53:53;100282.44;;;7.50;100.00
8641;BME280;4358;42.100;25.222;2022-12-16T07:56:37;100280.59;;;7.52;100.00
8641;BME280;4358;42.100;25.222;2022-12-16T07:59:21;100277.56;;;7.60;100.00
8641;BME280;4358;42.100;25.222;2022-12-16T08:02:07;100299.56;;;7.60;100.00
8641;BME280;4358;42.100;25.222;2022-12-16T08:04:52;100303.75;;;7.47;100.00
8641;BME280;4358;42.100;25.222;2022-12-16T08:07:38;100303.75;;;7.47;100.00
8641;BME280;4358;42.100;25.222;2022-12-16T08:10:24;100292.88;;;7.53;100.00
8641;BME280;4358;42.100;25.222;2022-12-16T08:13:08;100298.00;;;7.56;100.00
8641;BME280;4358;42.100;25.222;2022-12-16T08:15:52;100306.84;;;7.55;100.00
8641;BME280;4358;42.100;25.222;2022-12-16T08:18:37;100298.16;;;7.53;100.00
8641;BME280;4358;42.100;25.222;2022-12-16T08:21:21;100290.25;;;7.53;100.00
8641;BME280;4358;42.100;25.222;2022-12-16T08:24:06;100307.13;;;7.68;100.00
8641;BME280;4358;42.100;25.222;2022-12-16T08:26:51;100304.25;;;7.73;100.00
8641;BME280;4358;42.100;25.222;2022-12-16T08:29:36;100296.34;;;7.73;100.00
8641;BME280;4358;42.100;25.222;2022-12-16T08:32:20;100281.56;;;7.69;100.00
8641;BME280;4358;42.100;25.222;2022-12-16T08:35:05;100283.81;;;7.76;100.00
8641;BME280;4358;42.100;25.222;2022-12-16T08:37:53;100286.09;;;7.84;100.00
8641;BME280;4358;42.100;25.222;2022-12-16T08:40:39;100285.81;;;7.90;100.00
8641;BME280;4358;42.100;25.222;2022-12-16T08:43:29;100279.19;;;7.98;100.00
8641;BME280;4358;42.100;25.222;2022-12-16T08:46:13;100285.56;;;7.94;100.00
8641;BME280;4358;42.100;25.222;2022-12-16T08:48:58;100265.72;;;8.03;100.00
8641;BME280;4358;42.100;25.222;2022-12-16T08:51:42;100269.00;;;8.08;100.00
8641;BME280;4358;42.100;25.222;2022-12-16T08:54:28;100263.16;;;8.19;100.00
8641;BME280;4358;42.100;25.222;2022-12-16T08:57:12;100272.25;;;8.13;100.00
8641;BME280;4358;42.100;25.222;2022-12-16T09:00:13;100259.34;;;8.24;100.00
8641;BME280;4358;42.100;25.222;2022-12-16T09:02:58;100251.75;;;8.35;100.00
8641;BME280;4358;42.100;25.222;2022-12-16T09:05:42;100234.38;;;8.47;100.00
8641;BME280;4358;42.100;25.222;2022-12-16T09:08:27;100232.19;;;8.55;100.00
8641;BME280;4358;42.100;25.222;2022-12-16T09:11:11;100228.97;;;8.66;100.00
8641;BME280;4358;42.100;25.222;2022-12-16T09:13:52;100231.09;;;8.75;100.00
8641;BME280;4358;42.100;25.222;2022-12-16T09:16:38;100240.75;;;8.76;100.00
8641;BME280;4358;42.100;25.222;2022-12-16T09:19:22;100219.56;;;8.76;100.00
8641;BME280;4358;42.100;25.222;2022-12-16T09:22:07;100226.91;;;8.71;100.00
8641;BME280;4358;42.100;25.222;2022-12-16T09:24:51;100221.09;;;8.64;100.00
8641;BME280;4358;42.100;25.222;2022-12-16T09:27:35;100208.13;;;8.60;100.00
8641;BME280;4358;42.100;25.222;2022-12-16T09:30:19;100207.78;;;8.66;100.00
8641;BME280;4358;42.100;25.222;2022-12-16T09:33:05;100195.94;;;8.73;100.00
8641;BME280;4358;42.100;25.222;2022-12-16T09:35:49;100189.00;;;8.70;100.00
8641;BME280;4358;42.100;25.222;2022-12-16T09:38:34;100176.91;;;8.82;100.00
8641;BME280;4358;42.100;25.222;2022-12-16T09:41:37;100179.63;;;8.96;100.00
8641;BME280;4358;42.100;25.222;2022-12-16T09:44:32;100183.72;;;9.02;100.00
8641;BME280;4358;42.100;25.222;2022-12-16T09:47:26;100179.03;;;9.07;100.00
8641;BME280;4358;42.100;25.222;2022-12-16T09:50:18;100174.94;;;9.01;100.00
8641;BME280;4358;42.100;25.222;2022-12-16T09:53:05;100168.53;;;9.05;100.00
8641;BME280;4358;42.100;25.222;2022-12-16T09:55:50;100149.75;;;9.10;100.00
8641;BME280;4358;42.100;25.222;2022-12-16T09:58:38;100165.97;;;9.19;100.00
8641;BME280;4358;42.100;25.222;2022-12-16T10:01:25;100167.66;;;9.20;100.00
8641;BME280;4358;42.100;25.222;2022-12-16T10:04:10;100160.47;;;9.22;100.00
8641;BME280;4358;42.100;25.222;2022-12-16T10:06:58;100146.66;;;9.17;100.00
8641;BME280;4358;42.100;25.222;2022-12-16T10:09:49;100156.69;;;9.26;100.00
8641;BME280;4358;42.100;25.222;2022-12-16T10:12:40;100167.13;;;9.29;100.00
8641;BME280;4358;42.100;25.222;2022-12-16T10:15:33;100160.78;;;9.32;100.00
8641;BME280;4358;42.100;25.222;2022-12-16T10:18:30;100160.31;;;9.25;100.00
8641;BME280;4358;42.100;25.222;2022-12-16T10:21:21;100152.53;;;9.22;100.00
8641;BME280;4358;42.100;25.222;2022-12-16T10:24:17;100153.91;;;9.29;100.00
8641;BME280;4358;42.100;25.222;2022-12-16T10:27:08;100139.78;;;9.29;100.00
8641;BME280;4358;42.100;25.222;2022-12-16T10:29:54;100137.53;;;9.37;100.00
8641;BME280;4358;42.100;25.222;2022-12-16T10:32:41;100139.09;;;9.41;100.00
8641;BME280;4358;42.100;25.222;2022-12-16T10:35:29;100140.53;;;9.47;100.00
8641;BME280;4358;42.100;25.222;2022-12-16T10:38:20;100140.16;;;9.53;100.00
8641;BME280;4358;42.100;25.222;2022-12-16T10:41:08;100138.28;;;9.55;100.00
8641;BME280;4358;42.100;25.222;2022-12-16T10:43:56;100131.69;;;9.62;100.00
8641;BME280;4358;42.100;25.222;2022-12-16T10:46:41;100127.41;;;9.59;100.00
8641;BME280;4358;42.100;25.222;2022-12-16T10:49:25;100126.38;;;9.62;100.00
8641;BME280;4358;42.100;25.222;2022-12-16T10:52:11;100130.63;;;9.64;100.00
8641;BME280;4358;42.100;25.222;2022-12-16T10:55:00;100106.78;;;9.64;100.00
8641;BME280;4358;42.100;25.222;2022-12-16T10:57:57;100120.31;;;9.74;100.00
8641;BME280;4358;42.100;25.222;2022-12-16T11:00:45;100136.63;;;9.82;100.00
8641;BME280;4358;42.100;25.222;2022-12-16T11:03:41;100128.84;;;9.79;100.00
8641;BME280;4358;42.100;25.222;2022-12-16T11:06:28;100132.94;;;9.85;100.00
8641;BME280;4358;42.100;25.222;2022-12-16T11:09:24;100134.16;;;9.79;100.00
8641;BME280;4358;42.100;25.222;2022-12-16T11:12:28;100132.94;;;9.85;100.00
8641;BME280;4358;42.100;25.222;2022-12-16T11:15:25;100138.72;;;9.77;100.00
8641;BME280;4358;42.100;25.222;2022-12-16T11:18:12;100136.50;;;9.69;100.00
8641;BME280;4358;42.100;25.222;2022-12-16T11:21:11;100122.78;;;9.63;100.00
8641;BME280;4358;42.100;25.222;2022-12-16T11:24:05;100125.16;;;9.67;100.00
8641;BME280;4358;42.100;25.222;2022-12-16T11:26:54;100128.16;;;9.61;100.00
8641;BME280;4358;42.100;25.222;2022-12-16T11:29:48;100124.59;;;9.62;100.00
8641;BME280;4358;42.100;25.222;2022-12-16T11:32:36;100113.13;;;9.62;100.00
8641;BME280;4358;42.100;25.222;2022-12-16T11:35:26;100124.97;;;9.70;100.00
8641;BME280;4358;42.100;25.222;2022-12-16T11:38:18;100129.31;;;9.57;100.00
8641;BME280;4358;42.100;25.222;2022-12-16T11:41:04;100138.50;;;9.66;100.00
8641;BME280;4358;42.100;25.222;2022-12-16T11:43:51;100121.06;;;9.62;100.00
8641;BME280;4358;42.100;25.222;2022-12-16T11:46:36;100136.78;;;9.65;100.00
8641;BME280;4358;42.100;25.222;2022-12-16T11:49:25;100128.09;;;9.63;100.00
8641;BME280;4358;42.100;25.222;2022-12-16T11:52:12;100134.06;;;9.66;100.00
8641;BME280;4358;42.100;25.222;2022-12-16T11:55:05;100126.69;;;9.71;100.00
8641;BME280;4358;42.100;25.222;2022-12-16T11:57:57;100129.13;;;9.74;100.00
8641;BME280;4358;42.100;25.222;2022-12-16T12:00:52;100130.94;;;9.74;100.00
8641;BME280;4358;42.100;25.222;2022-12-16T12:03:42;100131.34;;;9.82;100.00
8641;BME280;4358;42.100;25.222;2022-12-16T12:06:33;100122.25;;;9.86;100.00
8641;BME280;4358;42.100;25.222;2022-12-16T12:09:21;100118.66;;;9.87;100.00
8641;BME280;4358;42.100;25.222;2022-12-16T12:12:15;100120.81;;;9.81;100.00
8641;BME280;4358;42.100;25.222;2022-12-16T12:15:13;100127.34;;;9.89;100.00
8641;BME280;4358;42.100;25.222;2022-12-16T12:18:04;100119.22;;;9.92;100.00
8641;BME280;4358;42.100;25.222;2022-12-16T12:21:01;100104.34;;;9.90;100.00
8641;BME280;4358;42.100;25.222;2022-12-16T12:23:57;100103.13;;;9.95;100.00
8641;BME280;4358;42.100;25.222;2022-12-16T12:26:50;100101.25;;;9.97;100.00
8641;BME280;4358;42.100;25.222;2022-12-16T12:29:49;100105.13;;;10.06;100.00
8641;BME280;4358;42.100;25.222;2022-12-16T12:32:43;100128.59;;;9.98;100.00
8641;BME280;4358;42.100;25.222;2022-12-16T12:35:43;100119.59;;;9.86;100.00
8641;BME280;4358;42.100;25.222;2022-12-16T12:38:35;100120.25;;;9.90;100.00
8641;BME280;4358;42.100;25.222;2022-12-16T12:41:26;100118.94;;;9.83;100.00
8641;BME280;4358;42.100;25.222;2022-12-16T12:44:17;100115.03;;;9.74;100.00
8641;BME280;4358;42.100;25.222;2022-12-16T12:47:09;100109.72;;;9.74;100.00
8641;BME280;4358;42.100;25.222;2022-12-16T12:49:58;100102.19;;;9.82;100.00
8641;BME280;4358;42.100;25.222;2022-12-16T12:53:12;100123.97;;;9.87;100.00
8641;BME280;4358;42.100;25.222;2022-12-16T12:56:03;100116.00;;;9.87;100.00
8641;BME280;4358;42.100;25.222;2022-12-16T12:58:53;100119.59;;;9.86;100.00
8641;BME280;4358;42.100;25.222;2022-12-16T13:01:41;100115.22;;;9.85;100.00
8641;BME280;4358;42.100;25.222;2022-12-16T13:04:27;100117.31;;;9.80;100.00
8641;BME280;4358;42.100;25.222;2022-12-16T13:07:20;100107.97;;;9.89;100.00
8641;BME280;4358;42.100;25.222;2022-12-16T13:13:32;100121.50;;;9.98;100.00
8641;BME280;4358;42.100;25.222;2022-12-16T13:19:51;100123.31;;;9.98;100.00
8641;BME280;4358;42.100;25.222;2022-12-16T13:22:36;100127.56;;;10.00;100.00
8641;BME280;4358;42.100;25.222;2022-12-16T13:25:39;100127.00;;;10.09;100.00
8641;BME280;4358;42.100;25.222;2022-12-16T13:28:30;100128.53;;;10.13;100.00
8641;BME280;4358;42.100;25.222;2022-12-16T13:31:16;100131.91;;;10.15;100.00
8641;BME280;4358;42.100;25.222;2022-12-16T13:34:04;100133.50;;;10.19;100.00
8641;BME280;4358;42.100;25.222;2022-12-16T13:36:54;100138.78;;;10.19;100.00
8641;BME280;4358;42.100;25.222;2022-12-16T13:39:41;100139.53;;;10.22;100.00
8641;BME280;4358;42.100;25.222;2022-12-16T13:42:47;100137.56;;;10.25;100.00
8641;BME280;4358;42.100;25.222;2022-12-16T13:45:35;100135.66;;;10.27;100.00
8641;BME280;4358;42.100;25.222;2022-12-16T13:48:37;100130.63;;;10.23;100.00
8641;BME280;4358;42.100;25.222;2022-12-16T13:51:57;100138.78;;;10.19;100.00
8641;BME280;4358;42.100;25.222;2022-12-16T13:54:46;100144.09;;;10.19;100.00
8641;BME280;4358;42.100;25.222;2022-12-16T13:57:35;100163.59;;;10.18;100.00
8641;BME280;4358;42.100;25.222;2022-12-16T14:00:22;100170.19;;;10.11;100.00
8641;BME280;4358;42.100;25.222;2022-12-16T14:03:10;100164.03;;;10.11;100.00
8641;BME280;4358;42.100;25.222;2022-12-16T14:05:57;100168.13;;;10.16;100.00
8641;BME280;4358;42.100;25.222;2022-12-16T14:08:44;100166.69;;;10.11;100.00
8641;BME280;4358;42.100;25.222;2022-12-16T14:11:35;100163.75;;;10.15;100.00
8641;BME280;4358;42.100;25.222;2022-12-16T14:14:26;100165.13;;;10.23;100.00
8641;BME280;4358;42.100;25.222;2022-12-16T14:17:21;100167.78;;;10.23;100.00
8641;BME280;4358;42.100;25.222;2022-12-16T14:20:13;100159.44;;;10.29;100.00
8641;BME280;4358;42.100;25.222;2022-12-16T14:23:04;100171.56;;;10.33;100.00
8641;BME280;4358;42.100;25.222;2022-12-16T14:25:57;100185.09;;;10.28;100.00
8641;BME280;4358;42.100;25.222;2022-12-16T14:28:44;100182.09;;;10.20;100.00
8641;BME280;4358;42.100;25.222;2022-12-16T14:31:34;100175.94;;;10.19;100.00